createdAt,value
2018-02-08T00:00:22.146Z,119.00
2018-02-08T00:01:22.155Z,121.00
2018-02-08T00:02:22.160Z,125.20
2018-02-08T00:03:22.176Z,116.80
2018-02-08T00:04:22.176Z,120.30
2018-02-08T00:05:22.191Z,118.10
2018-02-08T00:06:22.190Z,121.90
2018-02-08T00:07:22.189Z,124.30
2018-02-08T00:08:22.206Z,121.80
2018-02-08T00:09:22.209Z,127.20
2018-02-08T00:10:22.219Z,127.50
2018-02-08T00:11:22.222Z,127.30
2018-02-08T00:12:22.222Z,128.10
2018-02-08T00:13:22.235Z,129.70
2018-02-08T00:14:22.244Z,127.30
2018-02-08T00:15:22.247Z,122.40
2018-02-08T00:16:22.265Z,124.20
2018-02-08T00:17:22.284Z,132.20
2018-02-08T00:18:22.264Z,123.20
2018-02-08T00:19:22.282Z,124.30
2018-02-08T00:20:22.284Z,129.00
2018-02-08T00:21:22.299Z,128.20
2018-02-08T00:22:22.304Z,132.80
2018-02-08T00:23:22.312Z,124.00
2018-02-08T00:24:22.314Z,123.40
2018-02-08T00:25:22.313Z,128.30
2018-02-08T00:26:22.326Z,124.00
2018-02-08T00:27:22.335Z,125.70
2018-02-08T00:28:22.341Z,125.00
2018-02-08T00:29:22.357Z,115.10
2018-02-08T00:30:22.364Z,125.70
2018-02-08T00:31:22.362Z,118.70
2018-02-08T00:32:22.371Z,125.60
2018-02-08T00:33:22.375Z,126.70
2018-02-08T00:34:22.380Z,125.30
2018-02-08T00:35:22.381Z,122.90
2018-02-08T00:36:22.391Z,121.80
2018-02-08T00:37:22.398Z,116.60
2018-02-08T00:38:22.408Z,128.40
2018-02-08T00:39:22.420Z,118.50
2018-02-08T00:40:22.427Z,116.80
2018-02-08T00:41:22.420Z,121.10
2018-02-08T00:42:22.428Z,124.10
2018-02-08T00:43:22.441Z,131.30
2018-02-08T00:44:22.460Z,110.60
2018-02-08T00:45:22.457Z,130.40
2018-02-08T00:46:22.458Z,122.10
2018-02-08T00:47:22.457Z,126.00
2018-02-08T00:48:22.477Z,128.70
2018-02-08T00:49:22.476Z,129.20
2018-02-08T00:50:22.491Z,125.50
2018-02-08T00:51:22.501Z,124.10
2018-02-08T00:52:22.496Z,128.30
2018-02-08T00:53:22.518Z,126.40
2018-02-08T00:54:22.518Z,127.70
2018-02-08T00:55:22.519Z,121.50
2018-02-08T00:56:22.530Z,130.00
2018-02-08T00:57:22.542Z,121.90
2018-02-08T00:58:22.535Z,129.30
2018-02-08T00:59:22.551Z,131.00
2018-02-08T01:00:22.558Z,122.10
2018-02-08T01:01:22.563Z,128.10
2018-02-08T01:02:22.576Z,126.20
2018-02-08T01:03:22.565Z,124.10
2018-02-08T01:04:22.575Z,131.30
2018-02-08T01:05:22.581Z,127.60
2018-02-08T01:06:22.601Z,134.20
2018-02-08T01:07:22.608Z,134.70
2018-02-08T01:08:22.612Z,122.00
2018-02-08T01:09:22.606Z,124.20
2018-02-08T01:10:22.615Z,129.30
2018-02-08T01:11:22.640Z,120.70
2018-02-08T01:12:22.634Z,124.00
2018-02-08T01:13:22.644Z,129.40
2018-02-08T01:14:22.639Z,129.50
2018-02-08T01:15:22.644Z,133.40
2018-02-08T01:16:22.659Z,127.90
2018-02-08T01:17:22.663Z,130.90
2018-02-08T01:18:22.676Z,135.30
2018-02-08T01:19:22.675Z,132.90
2018-02-08T01:20:22.696Z,131.70
2018-02-08T01:21:22.694Z,122.80
2018-02-08T01:22:22.698Z,131.70
2018-02-08T01:23:22.702Z,140.70
2018-02-08T01:24:22.718Z,139.20
2018-02-08T01:25:22.716Z,131.60
2018-02-08T01:26:22.720Z,131.10
2018-02-08T01:27:22.730Z,134.80
2018-02-08T01:28:22.737Z,127.20
2018-02-08T01:29:22.755Z,130.00
2018-02-08T01:30:22.764Z,125.80
2018-02-08T01:31:22.754Z,132.50
2018-02-08T01:32:22.766Z,132.60
2018-02-08T01:33:22.779Z,130.90
2018-02-08T01:34:22.776Z,129.00
2018-02-08T01:35:22.779Z,128.10
2018-02-08T01:36:22.787Z,119.20
2018-02-08T01:37:22.796Z,122.80
2018-02-08T01:38:22.820Z,125.20
2018-02-08T01:39:22.812Z,128.60
2018-02-08T01:40:22.833Z,129.00
2018-02-08T01:41:22.815Z,126.80
2018-02-08T01:42:22.824Z,125.60
2018-02-08T01:43:22.837Z,128.00
2018-02-08T01:44:22.840Z,115.80
2018-02-08T01:45:22.845Z,130.70
2018-02-08T01:46:22.855Z,125.10
2018-02-08T01:47:22.854Z,124.50
2018-02-08T01:48:22.868Z,128.10
2018-02-08T01:49:22.879Z,126.30
2018-02-08T01:50:22.871Z,123.20
2018-02-08T01:51:22.886Z,123.00
2018-02-08T01:52:22.890Z,126.10
2018-02-08T01:53:22.899Z,121.10
2018-02-08T01:54:22.915Z,125.40
2018-02-08T01:55:22.901Z,129.20
2018-02-08T01:56:22.919Z,128.40
2018-02-08T01:57:22.918Z,120.10
2018-02-08T01:58:22.926Z,123.00
2018-02-08T01:59:22.940Z,121.10
2018-02-08T02:00:22.936Z,121.50
2018-02-08T02:01:22.951Z,129.90
2018-02-08T02:02:22.960Z,119.30
2018-02-08T02:03:22.960Z,127.50
2018-02-08T02:04:22.979Z,127.60
2018-02-08T02:05:22.965Z,123.80
2018-02-08T02:06:22.979Z,129.20
2018-02-08T02:07:22.987Z,118.70
2018-02-08T02:08:22.992Z,122.60
2018-02-08T02:09:23.006Z,126.00
2018-02-08T02:10:23.004Z,123.10
2018-02-08T02:11:23.011Z,126.60
2018-02-08T02:12:23.024Z,123.40
2018-02-08T02:13:23.022Z,121.60
2018-02-08T02:14:23.026Z,118.70
2018-02-08T02:15:23.036Z,129.80
2018-02-08T02:16:23.040Z,122.10
2018-02-08T02:17:23.052Z,123.80
2018-02-08T02:18:23.062Z,122.30
2018-02-08T02:19:23.058Z,123.50
2018-02-08T02:20:23.070Z,136.70
2018-02-08T02:21:23.072Z,127.50
2018-02-08T02:22:23.083Z,120.60
2018-02-08T02:23:23.094Z,120.70
2018-02-08T02:24:23.087Z,121.20
2018-02-08T02:25:23.098Z,128.10
2018-02-08T02:26:23.109Z,130.10
2018-02-08T02:27:23.113Z,121.30
2018-02-08T02:28:23.127Z,127.60
2018-02-08T02:29:23.118Z,121.90
2018-02-08T02:30:23.128Z,131.00
2018-02-08T02:31:23.139Z,127.30
2018-02-08T02:32:23.141Z,123.70
2018-02-08T02:33:23.158Z,129.20
2018-02-08T02:34:23.151Z,125.60
2018-02-08T02:35:23.159Z,122.20
2018-02-08T02:36:23.173Z,131.50
2018-02-08T02:37:23.176Z,123.60
2018-02-08T02:38:23.175Z,128.30
2018-02-08T02:39:23.189Z,124.60
2018-02-08T02:40:23.188Z,123.60
2018-02-08T02:41:23.208Z,122.90
2018-02-08T02:42:23.210Z,124.00
2018-02-08T02:43:23.206Z,130.60
2018-02-08T02:44:23.221Z,127.90
2018-02-08T02:45:23.225Z,130.70
2018-02-08T02:46:23.233Z,126.30
2018-02-08T02:47:23.243Z,126.90
2018-02-08T02:48:23.236Z,121.50
2018-02-08T02:49:23.251Z,135.70
2018-02-08T02:50:23.268Z,126.00
2018-02-08T02:51:23.263Z,124.00
2018-02-08T02:52:23.262Z,118.90
2018-02-08T02:53:23.266Z,127.60
2018-02-08T02:54:23.279Z,125.90
2018-02-08T02:55:23.294Z,129.40
2018-02-08T02:56:23.294Z,132.00
2018-02-08T02:57:23.296Z,135.10
2018-02-08T02:58:23.306Z,132.10
2018-02-08T02:59:23.309Z,122.30
2018-02-08T03:00:23.322Z,128.30
2018-02-08T03:01:23.378Z,132.20
2018-02-08T03:02:23.323Z,121.50
2018-02-08T03:03:23.339Z,136.10
2018-02-08T03:04:23.341Z,127.80
2018-02-08T03:05:23.360Z,129.70
2018-02-08T03:06:23.352Z,121.50
2018-02-08T03:07:23.353Z,130.90
2018-02-08T03:08:23.371Z,124.60
2018-02-08T03:09:23.374Z,126.90
2018-02-08T03:10:23.369Z,126.10
2018-02-08T03:11:23.384Z,126.50
2018-02-08T03:12:23.397Z,124.90
2018-02-08T03:13:23.398Z,134.00
2018-02-08T03:14:23.406Z,143.00
2018-02-08T03:15:23.404Z,125.30
2018-02-08T03:16:23.416Z,132.20
2018-02-08T03:17:23.438Z,131.20
2018-02-08T03:18:23.434Z,135.70
2018-02-08T03:19:23.423Z,129.90
2018-02-08T03:20:23.441Z,127.50
2018-02-08T03:21:23.442Z,132.20
2018-02-08T03:22:23.452Z,129.70
2018-02-08T03:23:23.464Z,128.60
2018-02-08T03:24:23.458Z,135.40
2018-02-08T03:25:23.471Z,122.50
2018-02-08T03:26:23.478Z,132.20
2018-02-08T03:27:23.480Z,132.20
2018-02-08T03:28:23.487Z,132.40
2018-02-08T03:29:23.488Z,127.00
2018-02-08T03:30:23.498Z,122.40
2018-02-08T03:31:23.510Z,123.70
2018-02-08T03:32:23.518Z,129.40
2018-02-08T03:33:23.515Z,131.70
2018-02-08T03:34:23.524Z,126.30
2018-02-08T03:35:23.530Z,122.90
2018-02-08T03:36:23.540Z,134.00
2018-02-08T03:37:23.533Z,132.70
2018-02-08T03:38:23.546Z,131.20
2018-02-08T03:39:23.553Z,126.50
2018-02-08T03:40:23.563Z,121.60
2018-02-08T03:41:23.573Z,124.40
2018-02-08T03:42:23.571Z,125.50
2018-02-08T03:43:23.574Z,127.20
2018-02-08T03:44:23.589Z,126.10
2018-02-08T03:45:23.590Z,126.50
2018-02-08T03:46:23.589Z,120.40
2018-02-08T03:47:23.600Z,123.00
2018-02-08T03:48:23.611Z,121.40
2018-02-08T03:49:23.618Z,127.10
2018-02-08T03:50:23.616Z,111.40
2018-02-08T03:51:23.618Z,120.50
2018-02-08T03:52:23.634Z,114.80
2018-02-08T03:53:23.685Z,123.40
2018-02-08T03:54:23.636Z,127.50
2018-02-08T03:55:23.653Z,117.80
2018-02-08T03:56:23.656Z,119.40
2018-02-08T03:57:23.669Z,119.60
2018-02-08T03:58:23.674Z,118.40
2018-02-08T03:59:23.673Z,125.40
2018-02-08T04:00:23.681Z,121.10
2018-02-08T04:01:23.701Z,123.80
2018-02-08T04:02:23.696Z,124.20
2018-02-08T04:03:23.704Z,125.40
2018-02-08T04:04:23.700Z,129.40
2018-02-08T04:05:23.713Z,119.60
2018-02-08T04:06:23.722Z,124.30
2018-02-08T04:07:23.714Z,116.20
2018-02-08T04:08:23.724Z,125.00
2018-02-08T04:09:23.730Z,128.40
2018-02-08T04:10:23.739Z,116.70
2018-02-08T04:11:23.751Z,117.90
2018-02-08T04:12:23.748Z,118.30
2018-02-08T04:13:23.763Z,115.70
2018-02-08T04:14:23.769Z,119.20
2018-02-08T04:15:23.781Z,121.10
2018-02-08T04:16:23.777Z,120.80
2018-02-08T04:17:23.774Z,113.90
2018-02-08T04:18:23.784Z,115.80
2018-02-08T04:19:23.801Z,112.00
2018-02-08T04:20:23.793Z,117.70
2018-02-08T04:21:23.808Z,111.30
2018-02-08T04:22:23.813Z,111.90
2018-02-08T04:23:23.823Z,118.70
2018-02-08T04:24:23.817Z,107.90
2018-02-08T04:25:23.821Z,113.40
2018-02-08T04:26:23.836Z,113.90
2018-02-08T04:27:23.847Z,119.10
2018-02-08T04:28:23.840Z,115.80
2018-02-08T04:29:23.855Z,106.70
2018-02-08T04:30:23.861Z,114.00
2018-02-08T04:31:23.865Z,113.50
2018-02-08T04:32:23.876Z,116.00
2018-02-08T04:33:23.867Z,116.40
2018-02-08T04:34:23.876Z,122.90
2018-02-08T04:35:23.895Z,121.20
2018-02-08T04:36:23.894Z,121.80
2018-02-08T04:37:23.899Z,124.10
2018-02-08T04:38:23.909Z,122.10
2018-02-08T04:39:23.911Z,125.40
2018-02-08T04:40:23.925Z,118.90
2018-02-08T04:41:23.916Z,119.40
2018-02-08T04:42:23.934Z,119.00
2018-02-08T04:43:23.939Z,118.20
2018-02-08T04:44:23.941Z,120.90
2018-02-08T04:45:23.943Z,126.00
2018-02-08T04:46:23.962Z,127.10
2018-02-08T04:47:23.954Z,122.60
2018-02-08T04:48:23.969Z,127.00
2018-02-08T04:49:23.976Z,131.60
2018-02-08T04:50:23.973Z,128.20
2018-02-08T04:51:23.984Z,132.90
2018-02-08T04:52:23.989Z,123.50
2018-02-08T04:53:24.003Z,127.80
2018-02-08T04:54:24.001Z,123.50
2018-02-08T04:55:24.004Z,126.30
2018-02-08T04:56:24.018Z,135.30
2018-02-08T04:57:24.014Z,134.30
2018-02-08T04:58:24.016Z,133.90
2018-02-08T04:59:24.034Z,123.30
2018-02-08T05:00:24.039Z,124.90
2018-02-08T05:01:24.050Z,125.40
2018-02-08T05:02:24.063Z,116.30
2018-02-08T05:03:24.049Z,117.80
2018-02-08T05:04:24.061Z,122.20
2018-02-08T05:05:24.055Z,118.40
2018-02-08T05:06:24.065Z,115.70
2018-02-08T05:07:24.075Z,117.30
2018-02-08T05:08:24.079Z,112.80
2018-02-08T05:09:24.097Z,113.20
2018-02-08T05:10:24.092Z,114.10
2018-02-08T05:11:24.093Z,106.60
2018-02-08T05:12:24.108Z,114.40
2018-02-08T05:13:24.103Z,118.30
2018-02-08T05:14:24.113Z,118.90
2018-02-08T05:15:24.124Z,119.40
2018-02-08T05:16:24.129Z,116.30
2018-02-08T05:17:24.130Z,112.70
2018-02-08T05:18:24.138Z,121.00
2018-02-08T05:19:24.146Z,123.30
2018-02-08T05:20:24.154Z,118.00
2018-02-08T05:21:24.147Z,117.20
2018-02-08T05:22:24.159Z,118.10
2018-02-08T05:23:24.169Z,120.80
2018-02-08T05:24:24.179Z,121.80
2018-02-08T05:25:24.170Z,113.10
2018-02-08T05:26:24.180Z,119.80
2018-02-08T05:27:24.192Z,118.40
2018-02-08T05:28:24.199Z,116.60
2018-02-08T05:29:24.195Z,130.30
2018-02-08T05:30:24.209Z,124.10
2018-02-08T05:31:24.210Z,116.50
2018-02-08T05:32:24.229Z,111.60
2018-02-08T05:33:24.220Z,115.20
2018-02-08T05:34:24.225Z,120.40
2018-02-08T05:35:24.238Z,121.30
2018-02-08T05:36:24.240Z,119.20
2018-02-08T05:37:24.242Z,114.40
2018-02-08T05:38:24.250Z,120.60
2018-02-08T05:39:24.255Z,118.20
2018-02-08T05:40:24.263Z,124.50
2018-02-08T05:41:24.263Z,125.50
2018-02-08T05:42:24.274Z,120.80
2018-02-08T05:43:24.286Z,116.40
2018-02-08T05:44:24.276Z,116.30
2018-02-08T05:45:24.289Z,121.80
2018-02-08T05:46:24.302Z,127.90
2018-02-08T05:47:24.304Z,123.30
2018-02-08T05:48:24.301Z,119.60
2018-02-08T05:49:24.311Z,119.70
2018-02-08T05:50:24.315Z,127.10
2018-02-08T05:51:24.317Z,133.10
2018-02-08T05:52:24.324Z,125.10
2018-02-08T05:53:24.353Z,125.60
2018-02-08T05:54:24.344Z,124.70
2018-02-08T05:55:24.341Z,130.00
2018-02-08T05:56:24.353Z,120.00
2018-02-08T05:57:24.356Z,123.20
2018-02-08T05:58:24.366Z,124.20
2018-02-08T05:59:24.363Z,129.40
2018-02-08T06:00:24.366Z,127.60
2018-02-08T06:01:24.379Z,135.60
2018-02-08T06:02:24.389Z,145.80
2018-02-08T06:03:24.384Z,132.30
2018-02-08T06:04:24.402Z,124.70
2018-02-08T06:05:24.400Z,134.20
2018-02-08T06:06:24.426Z,136.90
2018-02-08T06:07:24.412Z,136.20
2018-02-08T06:08:24.415Z,137.70
2018-02-08T06:09:24.425Z,138.90
2018-02-08T06:10:24.422Z,135.90
2018-02-08T06:11:24.428Z,134.20
2018-02-08T06:12:24.459Z,131.00
2018-02-08T06:13:24.450Z,141.10
2018-02-08T06:14:24.440Z,136.10
2018-02-08T06:15:24.453Z,139.10
2018-02-08T06:16:24.462Z,138.10
2018-02-08T06:17:24.474Z,139.90
2018-02-08T06:18:24.474Z,141.70
2018-02-08T06:19:24.497Z,136.50
2018-02-08T06:20:24.486Z,137.10
2018-02-08T06:21:24.485Z,141.90
2018-02-08T06:22:24.488Z,140.30
2018-02-08T06:23:24.500Z,143.00
2018-02-08T06:24:24.507Z,137.50
2018-02-08T06:25:24.508Z,135.00
2018-02-08T06:26:24.516Z,139.30
2018-02-08T06:27:24.521Z,140.60
2018-02-08T06:28:24.532Z,150.40
2018-02-08T06:29:24.533Z,140.70
2018-02-08T06:30:24.537Z,133.80
2018-02-08T06:31:24.552Z,125.70
2018-02-08T06:32:24.541Z,139.30
2018-02-08T06:33:24.554Z,141.60
2018-02-08T06:34:24.579Z,140.00
2018-02-08T06:35:24.569Z,141.80
2018-02-08T06:36:24.566Z,143.40
2018-02-08T06:37:24.570Z,142.00
2018-02-08T06:38:24.580Z,140.60
2018-02-08T06:39:24.580Z,144.00
2018-02-08T06:40:24.609Z,139.70
2018-02-08T06:41:24.600Z,139.90
2018-02-08T06:42:24.612Z,140.50
2018-02-08T06:43:24.601Z,140.80
2018-02-08T06:44:24.615Z,142.90
2018-02-08T06:45:24.619Z,146.80
2018-02-08T06:46:24.617Z,151.00
2018-02-08T06:47:24.629Z,137.20
2018-02-08T06:48:24.634Z,141.50
2018-02-08T06:49:24.644Z,140.60
2018-02-08T06:50:24.645Z,143.90
2018-02-08T06:51:24.657Z,146.70
2018-02-08T06:52:24.660Z,144.40
2018-02-08T06:53:24.665Z,133.80
2018-02-08T06:54:24.665Z,137.70
2018-02-08T06:55:24.675Z,135.90
2018-02-08T06:56:24.681Z,132.20
2018-02-08T06:57:24.678Z,143.30
2018-02-08T06:58:24.686Z,133.10
2018-02-08T06:59:24.692Z,145.10
2018-02-08T07:00:24.713Z,141.80
2018-02-08T07:01:24.709Z,142.40
2018-02-08T07:02:24.706Z,138.10
2018-02-08T07:03:24.718Z,141.60
2018-02-08T07:04:24.715Z,135.70
2018-02-08T07:05:24.725Z,143.40
2018-02-08T07:06:24.741Z,144.70
2018-02-08T07:07:24.742Z,143.20
2018-02-08T07:08:24.742Z,157.50
2018-02-08T07:09:24.742Z,142.00
2018-02-08T07:10:24.757Z,144.00
2018-02-08T07:11:24.755Z,146.60
2018-02-08T07:12:24.759Z,153.70
2018-02-08T07:13:24.772Z,141.90
2018-02-08T07:14:24.783Z,152.40
2018-02-08T07:15:24.777Z,150.40
2018-02-08T07:16:24.785Z,144.50
2018-02-08T07:17:24.791Z,141.10
2018-02-08T07:18:24.801Z,144.40
2018-02-08T07:19:24.804Z,148.80
2018-02-08T07:20:24.803Z,138.00
2018-02-08T07:21:24.820Z,142.40
2018-02-08T07:22:24.814Z,140.10
2018-02-08T07:23:24.829Z,146.40
2018-02-08T07:24:24.832Z,138.30
2018-02-08T07:25:24.840Z,145.70
2018-02-08T07:26:24.833Z,138.40
2018-02-08T07:27:24.849Z,143.70
2018-02-08T07:28:24.850Z,141.10
2018-02-08T07:29:24.864Z,129.30
2018-02-08T07:30:24.865Z,138.30
2018-02-08T07:31:24.864Z,148.10
2018-02-08T07:32:24.874Z,141.50
2018-02-08T07:33:24.885Z,138.70
2018-02-08T07:34:24.888Z,138.10
2018-02-08T07:35:24.887Z,136.30
2018-02-08T07:36:24.906Z,140.60
2018-02-08T07:37:24.923Z,126.50
2018-02-08T07:38:24.902Z,138.50
2018-02-08T07:39:24.923Z,134.60
2018-02-08T07:40:24.918Z,136.50
2018-02-08T07:41:24.935Z,144.50
2018-02-08T07:42:24.927Z,140.90
2018-02-08T07:43:24.932Z,136.90
2018-02-08T07:44:24.950Z,134.80
2018-02-08T07:45:24.953Z,131.80
2018-02-08T07:46:24.951Z,132.60
2018-02-08T07:47:24.961Z,140.60
2018-02-08T07:48:24.967Z,134.70
2018-02-08T07:49:24.971Z,124.20
2018-02-08T07:50:24.976Z,127.20
2018-02-08T07:51:24.992Z,133.40
2018-02-08T07:52:24.997Z,129.10
2018-02-08T07:53:25.000Z,129.10
2018-02-08T07:54:24.992Z,137.90
2018-02-08T07:55:25.006Z,125.30
2018-02-08T07:56:25.013Z,123.30
2018-02-08T07:57:25.029Z,126.50
2018-02-08T07:58:25.021Z,126.20
2018-02-08T07:59:25.026Z,123.50
2018-02-08T08:00:25.045Z,121.30
2018-02-08T08:01:25.045Z,122.30
2018-02-08T08:02:25.044Z,127.60
2018-02-08T08:03:25.052Z,157.80
2018-02-08T08:04:25.056Z,125.20
2018-02-08T08:05:25.070Z,124.20
2018-02-08T08:06:25.066Z,122.10
2018-02-08T08:07:25.077Z,122.30
2018-02-08T08:08:25.087Z,120.00
2018-02-08T08:09:25.092Z,115.60
2018-02-08T08:10:25.089Z,117.20
2018-02-08T08:11:25.102Z,118.70
2018-02-08T08:12:25.103Z,119.60
2018-02-08T08:13:25.117Z,125.40
2018-02-08T08:14:25.124Z,113.70
2018-02-08T08:15:25.118Z,111.50
2018-02-08T08:16:25.136Z,110.60
2018-02-08T08:17:25.138Z,118.60
2018-02-08T08:18:25.145Z,123.30
2018-02-08T08:19:25.159Z,117.40
2018-02-08T08:20:25.166Z,114.60
2018-02-08T08:21:25.166Z,107.70
2018-02-08T08:22:25.189Z,112.80
2018-02-08T08:23:25.177Z,119.10
2018-02-08T08:24:25.188Z,121.00
2018-02-08T08:25:25.189Z,110.20
2018-02-08T08:26:25.193Z,111.80
2018-02-08T08:27:25.239Z,109.30
2018-02-08T08:28:25.210Z,113.70
2018-02-08T08:29:25.222Z,109.50
2018-02-08T08:30:25.220Z,113.70
2018-02-08T08:31:25.235Z,112.00
2018-02-08T08:32:25.235Z,115.70
2018-02-08T08:33:25.240Z,111.60
2018-02-08T08:34:25.248Z,113.40
2018-02-08T08:35:25.252Z,109.40
2018-02-08T08:36:25.260Z,107.40
2018-02-08T08:37:25.269Z,112.30
2018-02-08T08:38:25.281Z,108.80
2018-02-08T08:39:25.283Z,111.30
2018-02-08T08:40:25.297Z,112.30
2018-02-08T08:41:25.298Z,115.00
2018-02-08T08:42:25.297Z,116.50
2018-02-08T08:43:25.318Z,114.70
2018-02-08T08:44:25.316Z,117.30
2018-02-08T08:45:25.327Z,108.80
2018-02-08T08:46:25.340Z,108.50
2018-02-08T08:47:25.331Z,110.90
2018-02-08T08:48:25.343Z,109.00
2018-02-08T08:49:25.363Z,116.00
2018-02-08T08:50:25.354Z,107.40
2018-02-08T08:51:25.366Z,103.20
2018-02-08T08:52:25.372Z,106.20
2018-02-08T08:53:25.387Z,103.70
2018-02-08T08:54:25.385Z,104.50
2018-02-08T08:55:25.391Z,109.20
2018-02-08T08:56:25.401Z,115.80
2018-02-08T08:57:25.407Z,113.60
2018-02-08T08:58:25.414Z,110.00
2018-02-08T08:59:25.428Z,104.30
2018-02-08T09:00:25.429Z,110.30
2018-02-08T09:01:25.443Z,103.70
2018-02-08T09:02:25.443Z,107.20
2018-02-08T09:03:25.451Z,114.30
2018-02-08T09:04:25.504Z,110.70
2018-02-08T09:05:25.465Z,116.10
2018-02-08T09:06:25.473Z,113.10
2018-02-08T09:07:25.485Z,104.90
2018-02-08T09:08:25.491Z,106.90
2018-02-08T09:09:25.505Z,114.20
2018-02-08T09:10:25.503Z,102.10
2018-02-08T09:11:25.510Z,112.10
2018-02-08T09:12:25.515Z,102.00
2018-02-08T09:13:25.524Z,106.60
2018-02-08T09:14:25.535Z,99.20
2018-02-08T09:15:25.543Z,104.80
2018-02-08T09:16:25.550Z,105.40
2018-02-08T09:17:25.566Z,102.80
2018-02-08T09:18:25.572Z,105.70
2018-02-08T09:19:25.576Z,107.20
2018-02-08T09:20:25.606Z,104.30
2018-02-08T09:21:25.591Z,99.00
2018-02-08T09:22:25.594Z,97.10
2018-02-08T09:23:25.601Z,98.00
2018-02-08T09:24:25.606Z,105.70
2018-02-08T09:25:25.634Z,103.20
2018-02-08T09:26:25.633Z,97.10
2018-02-08T09:27:25.636Z,110.20
2018-02-08T09:28:25.647Z,96.10
2018-02-08T09:29:25.656Z,91.70
2018-02-08T09:30:25.665Z,92.60
2018-02-08T09:31:25.673Z,96.30
2018-02-08T09:32:25.701Z,84.10
2018-02-08T09:33:25.694Z,75.10
2018-02-08T09:34:25.687Z,84.70
2018-02-08T09:35:25.692Z,85.10
2018-02-08T09:36:25.740Z,74.70
2018-02-08T09:37:25.711Z,77.50
2018-02-08T09:38:25.725Z,69.90
2018-02-08T09:39:25.737Z,76.00
2018-02-08T09:40:25.744Z,76.60
2018-02-08T09:41:25.744Z,78.00
2018-02-08T09:42:25.752Z,83.50
2018-02-08T09:43:25.766Z,79.20
2018-02-08T09:44:25.775Z,80.50
2018-02-08T09:45:25.790Z,79.10
2018-02-08T09:46:25.795Z,83.90
2018-02-08T09:47:25.804Z,82.90
2018-02-08T09:48:25.817Z,86.40
2018-02-08T09:49:25.816Z,85.20
2018-02-08T09:50:25.826Z,91.60
2018-02-08T09:51:25.842Z,85.40
2018-02-08T09:52:25.845Z,89.90
2018-02-08T09:53:25.862Z,86.10
2018-02-08T09:54:25.866Z,82.90
2018-02-08T09:55:25.872Z,89.00
2018-02-08T09:56:25.885Z,87.20
2018-02-08T09:57:25.887Z,85.20
2018-02-08T09:58:25.898Z,85.90
2018-02-08T09:59:25.910Z,90.10
2018-02-08T10:00:25.920Z,90.20
2018-02-08T10:01:25.930Z,82.20
2018-02-08T10:02:25.935Z,84.50
2018-02-08T10:03:25.940Z,77.60
2018-02-08T10:04:25.957Z,81.20
2018-02-08T10:05:25.959Z,80.20
2018-02-08T10:06:25.968Z,82.70
2018-02-08T10:07:25.984Z,82.00
2018-02-08T10:08:25.989Z,87.00
2018-02-08T10:09:26.001Z,83.00
2018-02-08T10:10:26.012Z,76.80
2018-02-08T10:11:26.011Z,78.60
2018-02-08T10:12:26.027Z,86.20
2018-02-08T10:13:26.034Z,84.30
2018-02-08T10:14:26.041Z,73.20
2018-02-08T10:15:26.052Z,75.20
2018-02-08T10:16:26.058Z,72.90
2018-02-08T10:17:26.072Z,78.60
2018-02-08T10:18:26.080Z,68.00
2018-02-08T10:19:26.086Z,73.90
2018-02-08T10:20:26.096Z,81.50
2018-02-08T10:21:26.105Z,79.60
2018-02-08T10:22:26.112Z,68.90
2018-02-08T10:23:26.122Z,75.40
2018-02-08T10:24:26.145Z,60.20
2018-02-08T10:25:26.148Z,76.20
2018-02-08T10:26:26.154Z,52.00
2018-02-08T10:27:26.155Z,53.90
2018-02-08T10:28:26.181Z,50.40
2018-02-08T10:29:26.173Z,49.80
2018-02-08T10:30:26.182Z,55.70
2018-02-08T10:31:26.198Z,58.10
2018-02-08T10:32:26.201Z,53.00
2018-02-08T10:33:26.212Z,50.50
2018-02-08T10:34:26.221Z,48.20
2018-02-08T10:35:26.230Z,43.00
2018-02-08T10:36:26.244Z,41.50
2018-02-08T10:37:26.246Z,43.30
2018-02-08T10:38:26.256Z,47.40
2018-02-08T10:39:26.267Z,45.40
2018-02-08T10:40:26.273Z,46.30
2018-02-08T10:41:26.282Z,47.30
2018-02-08T10:42:26.291Z,49.10
2018-02-08T10:43:26.295Z,46.40
2018-02-08T10:44:26.310Z,44.10
2018-02-08T10:45:26.318Z,43.20
2018-02-08T10:46:26.324Z,41.50
2018-02-08T10:47:26.342Z,32.00
2018-02-08T10:48:26.356Z,39.70
2018-02-08T10:49:26.366Z,40.30
2018-02-08T10:50:26.374Z,38.50
2018-02-08T10:51:26.384Z,38.70
2018-02-08T10:52:26.413Z,37.00
2018-02-08T10:53:26.399Z,37.20
2018-02-08T10:54:26.408Z,35.60
2018-02-08T10:55:26.421Z,41.20
2018-02-08T10:56:26.424Z,42.40
2018-02-08T10:57:26.435Z,45.50
2018-02-08T10:58:26.446Z,38.90
2018-02-08T10:59:26.454Z,41.60
2018-02-08T11:00:26.467Z,42.20
2018-02-08T11:01:26.474Z,40.40
2018-02-08T11:02:26.478Z,41.80
2018-02-08T11:03:26.491Z,40.10
2018-02-08T11:04:26.512Z,38.70
2018-02-08T11:05:26.511Z,37.90
2018-02-08T11:06:26.520Z,41.30
2018-02-08T11:07:26.538Z,38.30
2018-02-08T11:08:26.550Z,40.80
2018-02-08T11:09:26.551Z,39.60
2018-02-08T11:10:26.562Z,39.20
2018-02-08T11:11:26.579Z,38.30
2018-02-08T11:12:26.580Z,42.90
2018-02-08T11:13:26.594Z,36.80
2018-02-08T11:14:26.602Z,37.60
2018-02-08T11:15:26.607Z,44.50
2018-02-08T11:16:26.622Z,41.20
2018-02-08T11:17:26.630Z,41.80
2018-02-08T11:18:26.635Z,40.40
2018-02-08T11:19:26.650Z,49.20
2018-02-08T11:20:26.651Z,43.10
2018-02-08T11:21:26.679Z,42.40
2018-02-08T11:22:26.684Z,38.20
2018-02-08T11:23:26.694Z,36.80
2018-02-08T11:24:26.705Z,42.60
2018-02-08T11:25:26.708Z,41.70
2018-02-08T11:26:26.722Z,38.20
2018-02-08T11:27:26.734Z,38.40
2018-02-08T11:28:26.734Z,43.50
2018-02-08T11:29:26.748Z,39.90
2018-02-08T11:30:26.765Z,37.90
2018-02-08T11:31:26.763Z,39.50
2018-02-08T11:32:26.773Z,37.50
2018-02-08T11:33:26.789Z,35.40
2018-02-08T11:34:26.799Z,43.50
2018-02-08T11:35:26.817Z,42.20
2018-02-08T11:36:26.818Z,39.80
2018-02-08T11:37:26.835Z,45.20
2018-02-08T11:38:26.840Z,43.40
2018-02-08T11:39:26.849Z,40.00
2018-02-08T11:40:26.856Z,41.60
2018-02-08T11:41:26.861Z,40.90
2018-02-08T11:42:26.870Z,41.80
2018-02-08T11:43:26.883Z,39.40
2018-02-08T11:44:26.895Z,40.80
2018-02-08T11:45:26.920Z,46.00
2018-02-08T11:46:26.925Z,45.80
2018-02-08T11:47:26.941Z,47.60
2018-02-08T11:48:26.938Z,43.00
2018-02-08T11:49:26.954Z,55.20
2018-02-08T11:50:26.961Z,40.00
2018-02-08T11:51:26.965Z,43.50
2018-02-08T11:52:26.975Z,48.90
2018-02-08T11:53:26.982Z,50.40
2018-02-08T11:54:26.996Z,42.60
2018-02-08T11:55:27.016Z,44.00
2018-02-08T11:56:27.023Z,40.10
2018-02-08T11:57:27.035Z,48.70
2018-02-08T11:58:27.045Z,48.20
2018-02-08T11:59:27.048Z,45.80
2018-02-08T12:00:27.060Z,46.60
2018-02-08T12:01:27.065Z,52.30
2018-02-08T12:02:27.073Z,43.70
2018-02-08T12:03:27.086Z,51.20
2018-02-08T12:04:27.100Z,43.60
2018-02-08T12:05:27.115Z,53.30
2018-02-08T12:06:27.126Z,47.30
2018-02-08T12:07:27.129Z,48.40
2018-02-08T12:08:27.147Z,43.90
2018-02-08T12:09:27.150Z,43.90
2018-02-08T12:10:27.158Z,47.90
2018-02-08T12:11:27.174Z,49.20
2018-02-08T12:12:27.174Z,45.20
2018-02-08T12:13:27.193Z,47.60
2018-02-08T12:14:27.214Z,46.30
2018-02-08T12:15:27.214Z,44.60
2018-02-08T12:16:27.229Z,46.00
2018-02-08T12:17:27.238Z,46.20
2018-02-08T12:18:27.242Z,43.80
2018-02-08T12:19:27.256Z,45.90
2018-02-08T12:20:27.260Z,44.80
2018-02-08T12:21:27.273Z,48.00
2018-02-08T12:22:27.288Z,47.00
2018-02-08T12:23:27.301Z,47.60
2018-02-08T12:24:27.311Z,45.60
2018-02-08T12:25:27.341Z,48.50
2018-02-08T12:26:27.324Z,47.50
2018-02-08T12:27:27.343Z,46.70
2018-02-08T12:28:27.344Z,43.90
2018-02-08T12:29:27.360Z,44.30
2018-02-08T12:30:27.382Z,50.30
2018-02-08T12:31:27.385Z,52.40
2018-02-08T12:32:27.398Z,51.70
2018-02-08T12:33:27.405Z,44.70
2018-02-08T12:34:27.407Z,47.50